Washington, District of Columbia
Traffic Map
Current Weather Conditions
Washington, District of Columbia
Broken Clouds
Broken Clouds
28°
Feels Like: 28°
Wind Chill: 28° Ceiling: 25000
Heat Index: 28° Visibility: 10mi
Dew Point: Wind: 5mph
Humidity: 29% Direction: 290° (WNW)
Pressure: 30.15in Gusts: 0mph
Raw Report DataKDCA 282052Z 29004KT 10SM FEW075 BKN250 28/08 A3015 RMK AO2 SLP209 T02780083 58008
Traffic Incident Summary
Active as of:
Severity:
Category:
InformationThere was an issue retrieving the traffic information for this location. Please try a different location or try again shortly.
Advertisements
Track Severe Weather on mobile